createdAt,value
2019-04-06T00:00:11.904Z,2.9
2019-04-06T00:03:11.501Z,3
2019-04-06T00:06:11.534Z,2.9
2019-04-06T00:09:11.648Z,2.9
2019-04-06T00:12:11.577Z,3.4
2019-04-06T00:15:11.668Z,3.1
2019-04-06T00:18:11.689Z,3.1
2019-04-06T00:21:11.736Z,3
2019-04-06T00:24:11.447Z,2.9
2019-04-06T00:27:11.507Z,2.9
2019-04-06T00:30:11.531Z,2.8
2019-04-06T00:33:11.569Z,2.9
2019-04-06T00:36:11.818Z,3
2019-04-06T00:39:11.494Z,2.9
2019-04-06T00:42:11.693Z,2.8
2019-04-06T00:45:11.552Z,2.9
2019-04-06T00:48:11.594Z,3
2019-04-06T00:51:11.515Z,3
2019-04-06T00:54:11.549Z,2.9
2019-04-06T00:57:11.674Z,3
2019-04-06T01:00:11.680Z,2.9
2019-04-06T01:03:11.390Z,2.9
2019-04-06T01:06:12.202Z,2.8
2019-04-06T01:09:11.468Z,2.8
2019-04-06T01:12:11.617Z,2.8
2019-04-06T01:15:11.497Z,2.8
2019-04-06T01:18:11.540Z,2.9
2019-04-06T01:21:11.590Z,2.9
2019-04-06T01:24:11.701Z,2.9
2019-04-06T01:27:11.609Z,2.9
2019-04-06T01:30:11.464Z,2.8
2019-04-06T01:33:11.529Z,2.9
2019-04-06T01:36:11.499Z,3.1
2019-04-06T01:39:11.545Z,3.1
2019-04-06T01:42:11.603Z,3
2019-04-06T01:45:11.648Z,3
2019-04-06T01:48:11.834Z,3
2019-04-06T01:51:11.570Z,2.9
2019-04-06T01:54:11.486Z,2.9
2019-04-06T01:57:11.503Z,2.9
2019-04-06T02:00:11.626Z,2.8
2019-04-06T02:03:11.445Z,2.8
2019-04-06T02:06:11.652Z,2.9
2019-04-06T02:09:11.571Z,2.9
2019-04-06T02:12:11.567Z,3.1
2019-04-06T02:15:11.546Z,3
2019-04-06T02:18:11.709Z,3
2019-04-06T02:21:11.592Z,2.9
2019-04-06T02:24:11.578Z,3
2019-04-06T02:27:11.483Z,3
2019-04-06T02:30:11.678Z,3.1
2019-04-06T02:33:15.313Z,3
2019-04-06T02:36:11.650Z,3
2019-04-06T02:39:11.568Z,2.9
2019-04-06T02:42:11.527Z,3
2019-04-06T02:45:11.774Z,2.9
2019-04-06T02:48:11.873Z,2.8
2019-04-06T02:51:11.570Z,2.8
2019-04-06T02:54:12.379Z,2.8
2019-04-06T02:57:11.821Z,2.9
2019-04-06T03:00:11.653Z,2.9
2019-04-06T03:03:11.473Z,3
2019-04-06T03:06:11.917Z,3
2019-04-06T03:09:12.626Z,2.9
2019-04-06T03:12:12.119Z,2.9
2019-04-06T03:15:11.582Z,3
2019-04-06T03:18:11.421Z,2.8
2019-04-06T03:21:11.461Z,2.8
2019-04-06T03:24:11.909Z,3
2019-04-06T03:27:11.599Z,2.9
2019-04-06T03:30:11.708Z,2.9
2019-04-06T03:33:12.379Z,2.8
2019-04-06T03:36:11.608Z,2.8
2019-04-06T03:39:18.452Z,2.8
2019-04-06T03:42:12.090Z,2.8
2019-04-06T03:45:11.763Z,2.8
2019-04-06T03:48:11.733Z,2.7
2019-04-06T03:51:11.599Z,2.7
2019-04-06T03:54:11.363Z,2.8
2019-04-06T03:57:17.829Z,2.8
2019-04-06T04:00:12.023Z,2.7
2019-04-06T04:03:11.827Z,2.7
2019-04-06T04:06:11.688Z,2.6
2019-04-06T04:09:11.831Z,2.6
2019-04-06T04:12:11.781Z,2.6
2019-04-06T04:15:11.670Z,2.6
2019-04-06T04:18:11.797Z,2.6
2019-04-06T04:21:12.023Z,2.6
2019-04-06T04:24:11.948Z,2.6
2019-04-06T04:27:11.555Z,2.5
2019-04-06T04:30:11.376Z,2.4
2019-04-06T04:33:11.548Z,2.4
2019-04-06T04:36:11.755Z,2.5
2019-04-06T04:39:11.652Z,2.5
2019-04-06T04:42:11.570Z,2.4
2019-04-06T04:45:11.654Z,2.4
2019-04-06T04:48:11.428Z,2.4
2019-04-06T04:51:11.466Z,2.5
2019-04-06T04:54:11.751Z,2.4
2019-04-06T04:57:11.807Z,2.4
2019-04-06T05:00:11.594Z,2.4
2019-04-06T05:03:11.671Z,2.4
2019-04-06T05:06:11.468Z,2.3
2019-04-06T05:09:11.600Z,2.4
2019-04-06T05:12:11.510Z,2.4
2019-04-06T05:15:11.514Z,2.4
2019-04-06T05:18:11.564Z,2.4
2019-04-06T05:21:11.882Z,2.3
2019-04-06T05:24:11.745Z,2.4
2019-04-06T05:27:11.803Z,2.4
2019-04-06T05:30:11.289Z,2.3
2019-04-06T05:33:11.614Z,2.3
2019-04-06T05:36:11.470Z,2.3
2019-04-06T05:39:11.486Z,2.2
2019-04-06T05:42:11.344Z,2.3
2019-04-06T05:45:11.577Z,2.3
2019-04-06T05:48:11.493Z,2.4
2019-04-06T05:51:11.641Z,2.3
2019-04-06T05:54:11.402Z,2.2
2019-04-06T05:57:11.858Z,2.3
2019-04-06T06:00:11.920Z,2.3
2019-04-06T06:03:12.056Z,2.3
2019-04-06T06:06:14.024Z,2.3
2019-04-06T06:09:11.349Z,2.3
2019-04-06T06:12:11.638Z,2.3
2019-04-06T06:15:11.451Z,2.4
2019-04-06T06:18:11.438Z,2.3
2019-04-06T06:21:11.539Z,2.4
2019-04-06T06:24:11.842Z,2.3
2019-04-06T06:27:11.519Z,2.2
2019-04-06T06:30:11.528Z,2.1
2019-04-06T06:33:11.450Z,2.1
2019-04-06T06:36:11.692Z,2
2019-04-06T06:39:11.600Z,2
2019-04-06T06:42:11.283Z,2.1
2019-04-06T06:45:11.362Z,2.1
2019-04-06T06:48:11.477Z,2
2019-04-06T06:51:12.040Z,2.3
2019-04-06T06:54:11.487Z,2.2
2019-04-06T06:57:11.429Z,2.2
2019-04-06T07:00:11.535Z,2.2
2019-04-06T07:03:11.761Z,2.2
2019-04-06T07:06:11.363Z,2.3
2019-04-06T07:09:11.383Z,2.1
2019-04-06T07:12:11.436Z,2.1
2019-04-06T07:15:11.490Z,2.1
2019-04-06T07:18:11.539Z,2.1
2019-04-06T07:21:11.454Z,2
2019-04-06T07:24:11.190Z,2.1
2019-04-06T07:27:11.297Z,2.2
2019-04-06T07:30:11.371Z,2.2
2019-04-06T07:33:11.463Z,2.2
2019-04-06T07:36:11.585Z,2.1
2019-04-06T07:39:11.554Z,2.2
2019-04-06T07:42:11.195Z,2
2019-04-06T07:45:11.252Z,2
2019-04-06T07:48:11.417Z,2.7
2019-04-06T07:51:11.344Z,3.2
2019-04-06T07:54:11.362Z,3.4
2019-04-06T07:57:11.488Z,3.3
2019-04-06T08:00:11.494Z,3.2
2019-04-06T08:03:11.146Z,3.9
2019-04-06T08:06:11.885Z,3.6
2019-04-06T08:09:11.302Z,3.3
2019-04-06T08:12:11.438Z,3
2019-04-06T08:15:11.330Z,3.2
2019-04-06T08:18:11.583Z,2.9
2019-04-06T08:21:11.693Z,3.9
2019-04-06T08:24:11.229Z,4
2019-04-06T08:27:11.333Z,3.6
2019-04-06T08:30:11.473Z,3.7
2019-04-06T08:33:11.285Z,3.5
2019-04-06T08:36:11.716Z,3
2019-04-06T08:39:11.565Z,3.8
2019-04-06T08:42:11.433Z,6.7
2019-04-06T08:45:14.741Z,5.8
2019-04-06T08:48:11.308Z,6.2
2019-04-06T08:51:11.536Z,6.9
2019-04-06T08:54:11.316Z,5.3
2019-04-06T08:57:12.358Z,4.6
2019-04-06T09:00:12.330Z,4.1
2019-04-06T09:03:11.185Z,3.6
2019-04-06T09:06:11.195Z,3.3
2019-04-06T09:09:11.345Z,3.4
2019-04-06T09:12:11.401Z,3.3
2019-04-06T09:15:11.571Z,3.5
2019-04-06T09:18:11.606Z,3.3
2019-04-06T09:21:11.740Z,3.2
2019-04-06T09:24:11.274Z,2.9
2019-04-06T09:27:11.227Z,3
2019-04-06T09:30:11.671Z,3.1
2019-04-06T09:33:11.300Z,2.9
2019-04-06T09:36:11.356Z,2.7
2019-04-06T09:39:11.788Z,3.1
2019-04-06T09:42:11.360Z,2.8
2019-04-06T09:45:11.746Z,2.6
2019-04-06T09:48:11.280Z,2.6
2019-04-06T09:51:11.300Z,4.5
2019-04-06T09:54:11.371Z,6.2
2019-04-06T09:57:11.386Z,4.9
2019-04-06T10:00:11.195Z,3.9
2019-04-06T10:03:11.317Z,5
2019-04-06T10:06:11.243Z,4.6
2019-04-06T10:09:11.296Z,3.7
2019-04-06T10:12:11.506Z,3.6
2019-04-06T10:15:11.930Z,4.1
2019-04-06T10:18:11.715Z,3.5
2019-04-06T10:21:11.175Z,3.8
2019-04-06T10:24:11.248Z,3.3
2019-04-06T10:27:11.751Z,3.1
2019-04-06T10:30:11.401Z,3.2
2019-04-06T10:33:11.448Z,3
2019-04-06T10:36:11.348Z,3.5
2019-04-06T10:39:11.275Z,3.2
2019-04-06T10:42:11.575Z,2.9
2019-04-06T10:45:11.223Z,3.7
2019-04-06T10:48:11.337Z,3.4
2019-04-06T10:51:11.272Z,3.7
2019-04-06T10:54:11.273Z,3.3
2019-04-06T10:57:11.496Z,5.9
2019-04-06T11:00:11.277Z,4.8
2019-04-06T11:03:11.255Z,3.8
2019-04-06T11:06:11.257Z,3.5
2019-04-06T11:09:11.284Z,4.4
2019-04-06T11:12:11.515Z,4
2019-04-06T11:15:11.527Z,4.2
2019-04-06T11:18:11.174Z,4.4
2019-04-06T11:21:11.333Z,4.1
2019-04-06T11:24:11.245Z,3.8
2019-04-06T11:27:11.550Z,4.3
2019-04-06T11:30:15.749Z,4.2
2019-04-06T11:33:11.194Z,4.4
2019-04-06T11:36:11.478Z,3.5
2019-04-06T11:39:11.187Z,3.3
2019-04-06T11:42:11.696Z,3.3
2019-04-06T11:45:11.216Z,3.2
2019-04-06T11:48:11.265Z,3.2
2019-04-06T11:51:11.355Z,3
2019-04-06T11:54:11.520Z,2.8
2019-04-06T11:57:11.208Z,2.9
2019-04-06T12:00:28.278Z,3
2019-04-06T12:03:11.261Z,2.9
2019-04-06T12:06:11.573Z,2.8
2019-04-06T12:09:11.257Z,2.7
2019-04-06T12:12:11.202Z,2.7
2019-04-06T12:15:11.138Z,2.6
2019-04-06T12:18:11.254Z,2.6
2019-04-06T12:21:11.212Z,2.7
2019-04-06T12:24:11.608Z,3
2019-04-06T12:27:11.328Z,3
2019-04-06T12:30:11.043Z,3
2019-04-06T12:33:11.247Z,2.9
2019-04-06T12:36:11.672Z,2.9
2019-04-06T12:39:11.192Z,2.8
2019-04-06T12:42:11.639Z,6.7
2019-04-06T12:45:11.759Z,4.6
2019-04-06T12:48:11.426Z,4.3
2019-04-06T12:51:11.089Z,3.4
2019-04-06T12:54:11.053Z,4.7
2019-04-06T12:57:11.362Z,3.7
2019-04-06T13:00:11.205Z,3.2
2019-04-06T13:03:11.269Z,3.1
2019-04-06T13:06:11.661Z,2.9
2019-04-06T13:09:11.340Z,2.6
2019-04-06T13:12:11.454Z,2.7
2019-04-06T13:15:11.151Z,2.5
2019-04-06T13:18:11.153Z,2.4
2019-04-06T13:21:11.619Z,2.6
2019-04-06T13:24:11.365Z,2.5
2019-04-06T13:27:11.449Z,2.4
2019-04-06T13:30:11.210Z,2.3
2019-04-06T13:33:11.148Z,2.4
2019-04-06T13:36:11.824Z,2.4
2019-04-06T13:39:11.752Z,2.4
2019-04-06T13:42:11.433Z,3.6
2019-04-06T13:45:11.859Z,10.7
2019-04-06T13:48:11.399Z,9.1
2019-04-06T13:51:11.559Z,6.6
2019-04-06T13:54:11.110Z,5.5
2019-04-06T13:57:11.867Z,5.4
2019-04-06T14:00:11.263Z,5.9
2019-04-06T14:03:12.158Z,6
2019-04-06T14:06:11.047Z,4.5
2019-04-06T14:09:11.275Z,5.5
2019-04-06T14:12:11.208Z,5.2
2019-04-06T14:15:11.307Z,5.1
2019-04-06T14:18:11.433Z,4.4
2019-04-06T14:21:11.636Z,4.6
2019-04-06T14:24:11.337Z,4.1
2019-04-06T14:27:11.294Z,3.9
2019-04-06T14:30:11.605Z,3.5
2019-04-06T14:33:11.208Z,5.2
2019-04-06T14:36:11.244Z,5.2
2019-04-06T14:39:11.229Z,8.5
2019-04-06T14:42:11.236Z,7.2
2019-04-06T14:45:11.582Z,6.3
2019-04-06T14:48:11.422Z,7.5
2019-04-06T14:51:11.158Z,5.9
2019-04-06T14:54:12.468Z,4.8
2019-04-06T14:57:11.823Z,4.8
2019-04-06T15:00:11.265Z,4.2
2019-04-06T15:03:11.006Z,3.4
2019-04-06T15:06:11.051Z,3.6
2019-04-06T15:09:11.293Z,4
2019-04-06T15:12:11.613Z,3.5
2019-04-06T15:15:11.916Z,3.1
2019-04-06T15:18:11.585Z,2.9
2019-04-06T15:21:11.023Z,2.7
2019-04-06T15:24:11.050Z,3
2019-04-06T15:27:11.712Z,3.7
2019-04-06T15:30:11.221Z,3.5
2019-04-06T15:33:11.441Z,3.9
2019-04-06T15:36:11.832Z,3.2
2019-04-06T15:39:11.484Z,3.1
2019-04-06T15:42:10.971Z,4.5
2019-04-06T15:45:11.214Z,4.1
2019-04-06T15:48:11.217Z,3.8
2019-04-06T15:51:11.161Z,3.8
2019-04-06T15:54:11.139Z,4.6
2019-04-06T15:57:11.525Z,3.9
2019-04-06T16:00:11.550Z,3.6
2019-04-06T16:03:11.240Z,4.3
2019-04-06T16:06:11.078Z,4.7
2019-04-06T16:09:10.994Z,3.7
2019-04-06T16:12:12.295Z,3.9
2019-04-06T16:15:11.178Z,3.4
2019-04-06T16:18:11.032Z,3
2019-04-06T16:21:11.311Z,2.9
2019-04-06T16:24:11.481Z,3.1
2019-04-06T16:27:11.641Z,3
2019-04-06T16:30:11.237Z,3
2019-04-06T16:33:11.561Z,3.7
2019-04-06T16:36:12.566Z,3.5
2019-04-06T16:39:11.138Z,2.9
2019-04-06T16:42:11.255Z,3.7
2019-04-06T16:45:11.138Z,3.3
2019-04-06T16:48:11.169Z,3
2019-04-06T16:51:11.016Z,3.5
2019-04-06T16:54:11.709Z,3
2019-04-06T16:57:11.530Z,2.9
2019-04-06T17:00:21.099Z,3
2019-04-06T17:03:11.145Z,2.8
2019-04-06T17:06:11.819Z,2.6
2019-04-06T17:09:11.103Z,2.9
2019-04-06T17:12:11.100Z,3
2019-04-06T17:15:11.056Z,3.3
2019-04-06T17:18:11.146Z,2.9
2019-04-06T17:21:13.968Z,3.4
2019-04-06T17:24:11.518Z,2.9
2019-04-06T17:27:11.748Z,2.8
2019-04-06T17:30:11.360Z,2.6
2019-04-06T17:33:11.673Z,2.5
2019-04-06T17:36:11.261Z,2.6
2019-04-06T17:39:11.718Z,2.7
2019-04-06T17:42:11.979Z,2.6
2019-04-06T17:45:11.803Z,2.5
2019-04-06T17:48:11.181Z,2.5
2019-04-06T17:51:11.401Z,3
2019-04-06T17:54:11.280Z,3
2019-04-06T17:57:11.185Z,3
2019-04-06T18:00:11.689Z,3
2019-04-06T18:03:11.500Z,3.9
2019-04-06T18:06:11.081Z,3.5
2019-04-06T18:09:11.073Z,3.4
2019-04-06T18:12:11.650Z,4.6
2019-04-06T18:15:11.213Z,3.6
2019-04-06T18:18:11.847Z,3.1
2019-04-06T18:21:11.018Z,2.9
2019-04-06T18:24:11.438Z,3.4
2019-04-06T18:27:11.055Z,3
2019-04-06T18:30:11.590Z,3
2019-04-06T18:33:11.831Z,2.9
2019-04-06T18:36:11.266Z,3.6
2019-04-06T18:39:10.975Z,3.3
2019-04-06T18:42:11.089Z,3.2
2019-04-06T18:45:11.099Z,3.8
2019-04-06T18:48:11.928Z,3.5
2019-04-06T18:51:11.553Z,3.3
2019-04-06T18:54:11.018Z,3.1
2019-04-06T18:57:11.716Z,3
2019-04-06T19:00:13.644Z,3
2019-04-06T19:03:17.750Z,3.5
2019-04-06T19:06:11.531Z,3.1
2019-04-06T19:09:25.869Z,3.1
2019-04-06T19:12:11.041Z,3.9
2019-04-06T19:15:11.253Z,3.7
2019-04-06T19:18:11.188Z,3.3
2019-04-06T19:21:11.114Z,3
2019-04-06T19:24:11.570Z,3
2019-04-06T19:27:11.228Z,3
2019-04-06T19:30:11.289Z,2.9
2019-04-06T19:33:27.248Z,3
2019-04-06T19:36:11.201Z,2.9
2019-04-06T19:39:11.195Z,3.1
2019-04-06T19:42:11.883Z,3.3
2019-04-06T19:45:11.603Z,3.4
2019-04-06T19:48:11.233Z,3.4
2019-04-06T19:51:11.658Z,3.2
2019-04-06T19:54:11.059Z,3.5
2019-04-06T19:57:11.128Z,3.3
2019-04-06T20:00:11.734Z,3.2
2019-04-06T20:03:11.326Z,3.2
2019-04-06T20:06:11.071Z,3.2
2019-04-06T20:09:11.068Z,3.2
2019-04-06T20:12:11.813Z,3.1
2019-04-06T20:15:11.188Z,3.1
2019-04-06T20:18:12.610Z,3.4
2019-04-06T20:21:10.979Z,3.2
2019-04-06T20:24:10.980Z,3
2019-04-06T20:27:11.590Z,3.3
2019-04-06T20:30:11.547Z,3.6
2019-04-06T20:33:11.132Z,3.6
2019-04-06T20:36:11.557Z,3.6
2019-04-06T20:39:11.576Z,3.4
2019-04-06T20:42:11.005Z,3.3
2019-04-06T20:45:11.642Z,3.2
2019-04-06T20:48:11.101Z,3.2
2019-04-06T20:51:11.171Z,3.4
2019-04-06T20:54:11.859Z,3.4
2019-04-06T20:57:11.155Z,3.2
2019-04-06T21:00:11.144Z,3.1
2019-04-06T21:03:11.027Z,3.2
2019-04-06T21:06:11.499Z,3.2
2019-04-06T21:09:11.158Z,3.2
2019-04-06T21:12:11.851Z,3.2
2019-04-06T21:15:21.802Z,3.2
2019-04-06T21:18:11.170Z,3.2
2019-04-06T21:21:11.270Z,3.1
2019-04-06T21:24:11.820Z,3.6
2019-04-06T21:27:12.591Z,3.4
2019-04-06T21:30:11.320Z,3.3
2019-04-06T21:33:10.934Z,3.3
2019-04-06T21:36:11.023Z,3.2
2019-04-06T21:39:11.233Z,3.2
2019-04-06T21:42:11.062Z,3.3
2019-04-06T21:45:11.288Z,3.3
2019-04-06T21:48:10.815Z,3.2
2019-04-06T21:51:11.615Z,3.8
2019-04-06T21:54:11.101Z,3.6
2019-04-06T21:57:11.041Z,3.4
2019-04-06T22:00:11.452Z,3.3
2019-04-06T22:03:11.468Z,3.3
2019-04-06T22:06:11.698Z,3.3
2019-04-06T22:09:11.431Z,3.4
2019-04-06T22:12:11.681Z,3.2
2019-04-06T22:15:11.002Z,3.2
2019-04-06T22:18:11.943Z,3.2
2019-04-06T22:21:11.606Z,3.2
2019-04-06T22:24:11.278Z,3.2
2019-04-06T22:27:11.248Z,3.3
2019-04-06T22:30:11.577Z,3.4
2019-04-06T22:33:10.980Z,3.4
2019-04-06T22:36:10.895Z,3.3
2019-04-06T22:39:11.442Z,3.4
2019-04-06T22:42:11.437Z,3.5
2019-04-06T22:45:12.508Z,3.5
2019-04-06T22:48:12.068Z,3.3
2019-04-06T22:51:11.535Z,3.3
2019-04-06T22:54:11.729Z,3.4
2019-04-06T22:57:11.226Z,3.4
2019-04-06T23:00:12.564Z,3.4
2019-04-06T23:03:11.466Z,3.4
2019-04-06T23:06:10.972Z,3.4
2019-04-06T23:09:11.357Z,3.5
2019-04-06T23:12:11.041Z,3.4
2019-04-06T23:15:11.889Z,3.4
2019-04-06T23:18:11.618Z,3.4
2019-04-06T23:21:11.147Z,3.4
2019-04-06T23:24:11.356Z,3.5
2019-04-06T23:27:11.470Z,3.5
2019-04-06T23:30:11.086Z,3.6
2019-04-06T23:33:12.218Z,3.6
2019-04-06T23:36:12.140Z,3.7
2019-04-06T23:39:11.139Z,3.6
2019-04-06T23:42:11.385Z,3.5
2019-04-06T23:45:10.960Z,3.5
2019-04-06T23:48:11.020Z,3.6
2019-04-06T23:51:10.943Z,3.7
2019-04-06T23:54:11.156Z,3.5
2019-04-06T23:57:11.125Z,3.6
